Terminal Aerodrome Forecast
Issued by NWS

Home | Current Version | Previous Version | Text Only | Print | Product List | Glossary On
Versions: 1 2 3 4 5 6 7 8 9 10 11 12 13 14 15
000
FTUS43 KLSX 280520
TAFCPS
TAF
KCPS 280520Z 2806/0106 16013KT P6SM VCTS SCT025CB OVC060
     FM280800 16010KT P6SM BKN045
     FM281100 17009KT P6SM BKN025
     FM281500 19015G23KT P6SM BKN070
     FM010100 21011G21KT P6SM VCTS SCT025CB BKN090=

USA.gov is the U.S. government's official web portal to all federal, state and local government web resources and services.